createdAt,value
2022-09-23T00:02:36.642Z,9.60
2022-09-23T00:06:39.129Z,11.20
2022-09-23T00:10:40.710Z,11.10
2022-09-23T00:14:42.048Z,9.88
2022-09-23T00:18:44.157Z,11.15
2022-09-23T00:22:46.393Z,9.45
2022-09-23T00:26:47.749Z,12.77
2022-09-23T00:30:49.143Z,12.43
2022-09-23T00:34:51.429Z,9.80
2022-09-23T00:38:54.188Z,11.95
2022-09-23T00:42:55.569Z,12.00
2022-09-23T00:46:57.173Z,9.18
2022-09-23T00:50:58.580Z,8.10
2022-09-23T00:55:02.766Z,8.07
2022-09-23T00:59:06.534Z,10.05
2022-09-23T01:03:08.292Z,9.27
2022-09-23T01:07:09.717Z,9.23
2022-09-23T01:11:34.683Z,9.38
2022-09-23T01:15:45.991Z,8.27
2022-09-23T01:20:18.019Z,8.57
2022-09-23T01:25:01.594Z,9.60
2022-09-23T01:29:21.810Z,8.07
2022-09-23T01:33:38.214Z,11.43
2022-09-23T01:37:52.442Z,8.68
2022-09-23T01:42:02.694Z,7.75
2022-09-23T01:46:11.157Z,10.02
2022-09-23T01:50:36.572Z,8.45
2022-09-23T01:54:43.232Z,6.78
2022-09-23T01:58:54.973Z,6.63
2022-09-23T02:03:01.427Z,11.38
2022-09-23T02:07:10.074Z,8.35
2022-09-23T02:11:16.241Z,11.25
2022-09-23T02:15:35.165Z,7.25
2022-09-23T02:19:47.816Z,7.68
2022-09-23T02:23:53.346Z,8.23
2022-09-23T02:28:14.810Z,11.00
2022-09-23T02:32:48.658Z,7.72
2022-09-23T02:37:11.625Z,7.28
2022-09-23T02:41:23.008Z,5.63
2022-09-23T02:45:25.007Z,9.30
2022-09-23T02:49:29.714Z,8.35
2022-09-23T02:53:34.931Z,8.10
2022-09-23T02:57:36.357Z,8.75
2022-09-23T03:01:47.634Z,8.10
2022-09-23T03:05:56.014Z,6.25
2022-09-23T03:10:09.650Z,9.05
2022-09-23T03:14:27.998Z,6.85
2022-09-23T03:18:36.576Z,8.75
2022-09-23T03:22:47.136Z,7.70
2022-09-23T03:26:49.862Z,11.55
2022-09-23T03:30:53.011Z,7.60
2022-09-23T03:34:58.399Z,7.95
2022-09-23T03:39:08.466Z,8.43
2022-09-23T03:47:16.655Z,6.70
2022-09-23T03:51:22.536Z,9.95
2022-09-23T03:55:24.040Z,8.05
2022-09-23T03:59:26.593Z,10.00
2022-09-23T04:03:29.258Z,7.78
2022-09-23T04:07:30.753Z,8.43
2022-09-23T04:11:32.179Z,9.05
2022-09-23T04:15:33.589Z,15.35
2022-09-23T04:19:35.234Z,8.75
2022-09-23T04:23:36.827Z,7.95
2022-09-23T04:27:38.853Z,8.57
2022-09-23T04:31:40.526Z,8.45
2022-09-23T04:35:43.509Z,9.82
2022-09-23T04:39:45.001Z,7.35
2022-09-23T04:43:46.815Z,6.63
2022-09-23T04:47:48.325Z,10.98
2022-09-23T04:51:49.784Z,6.97
2022-09-23T04:55:52.266Z,6.88
2022-09-23T04:59:56.942Z,8.35
2022-09-23T05:04:02.572Z,9.10
2022-09-23T05:08:04.083Z,6.75
2022-09-23T05:12:05.931Z,10.73
2022-09-23T05:16:10.888Z,10.07
2022-09-23T05:20:13.164Z,7.80
2022-09-23T05:24:14.887Z,8.52
2022-09-23T05:28:20.221Z,6.60
2022-09-23T05:32:21.975Z,10.13
2022-09-23T05:36:24.405Z,7.53
2022-09-23T05:40:25.975Z,10.10
2022-09-23T05:44:27.541Z,9.20
2022-09-23T05:48:33.171Z,7.78
2022-09-23T05:52:34.849Z,9.90
2022-09-23T05:56:37.349Z,12.93
2022-09-23T06:00:40.914Z,9.77
2022-09-23T06:04:43.031Z,10.93
2022-09-23T06:08:45.683Z,9.60
2022-09-23T06:12:47.150Z,10.88
2022-09-23T06:16:48.667Z,10.82
2022-09-23T06:20:50.108Z,13.25
2022-09-23T06:24:51.555Z,8.60
2022-09-23T06:28:53.141Z,8.20
2022-09-23T06:32:57.102Z,12.20
2022-09-23T06:37:01.976Z,10.45
2022-09-23T06:41:12.005Z,6.65
2022-09-23T06:45:14.987Z,10.07
2022-09-23T06:49:16.561Z,8.85
2022-09-23T06:53:18.176Z,7.70
2022-09-23T06:57:19.773Z,14.00
2022-09-23T07:01:22.337Z,7.60
2022-09-23T07:05:24.120Z,9.18
2022-09-23T07:09:25.971Z,6.00
2022-09-23T07:13:29.401Z,6.63
2022-09-23T07:17:31.105Z,8.15
2022-09-23T07:21:32.541Z,7.05
2022-09-23T07:25:34.207Z,6.85
2022-09-23T07:29:46.595Z,7.15
2022-09-23T07:33:49.765Z,7.60
2022-09-23T07:37:51.231Z,7.55
2022-09-23T07:41:52.698Z,5.93
2022-09-23T07:45:54.525Z,5.47
2022-09-23T07:49:55.953Z,7.53
2022-09-23T07:53:57.403Z,6.07
2022-09-23T07:57:58.826Z,7.63
2022-09-23T08:02:00.497Z,6.32
2022-09-23T08:06:13.078Z,5.43
2022-09-23T08:10:14.662Z,5.93
2022-09-23T08:14:17.917Z,4.43
2022-09-23T08:18:19.484Z,5.45
2022-09-23T08:22:20.969Z,5.05
2022-09-23T08:26:22.670Z,6.15
2022-09-23T08:30:24.161Z,4.53
2022-09-23T08:34:27.820Z,6.78
2022-09-23T08:38:29.968Z,5.10
2022-09-23T08:42:33.686Z,4.78
2022-09-23T08:46:41.473Z,5.53
2022-09-23T08:50:54.718Z,4.43
2022-09-23T08:54:56.464Z,4.00
2022-09-23T08:59:14.801Z,3.88
2022-09-23T09:03:34.117Z,5.10
2022-09-23T09:07:40.072Z,5.80
2022-09-23T09:11:48.531Z,5.05
2022-09-23T09:16:05.715Z,5.80
2022-09-23T09:20:19.012Z,2.90
2022-09-23T09:24:34.059Z,5.20
2022-09-23T09:28:41.687Z,3.72
2022-09-23T09:33:00.700Z,6.18
2022-09-23T09:37:08.928Z,3.67
2022-09-23T09:41:18.240Z,5.10
2022-09-23T09:45:46.589Z,3.13
2022-09-23T09:50:01.961Z,3.40
2022-09-23T09:54:22.110Z,3.92
2022-09-23T09:58:25.578Z,2.67
2022-09-23T10:02:30.631Z,3.78
2022-09-23T10:06:34.733Z,3.30
2022-09-23T10:10:36.150Z,1.92
2022-09-23T10:14:37.727Z,2.30
2022-09-23T10:18:49.971Z,3.03
2022-09-23T10:22:51.529Z,2.55
2022-09-23T10:27:01.591Z,3.78
2022-09-23T10:31:15.810Z,2.13
2022-09-23T10:35:21.959Z,3.08
2022-09-23T10:39:43.011Z,3.75
2022-09-23T10:44:09.844Z,2.20
2022-09-23T10:48:38.419Z,1.95
2022-09-23T10:53:05.044Z,2.28
2022-09-23T10:57:41.111Z,3.53
2022-09-23T11:01:48.965Z,4.55
2022-09-23T11:06:22.885Z,6.50
2022-09-23T11:10:53.007Z,2.13
2022-09-23T11:19:02.122Z,2.55
2022-09-23T11:23:34.286Z,1.73
2022-09-23T11:28:13.030Z,2.47
2022-09-23T11:32:32.271Z,3.03
2022-09-23T11:36:46.995Z,3.15
2022-09-23T11:40:54.755Z,2.00
2022-09-23T11:45:02.158Z,1.73
2022-09-23T11:49:09.394Z,2.17
2022-09-23T11:53:42.582Z,2.08
2022-09-23T11:57:49.483Z,2.15
2022-09-23T12:02:20.368Z,5.05
2022-09-23T12:06:27.955Z,3.08
2022-09-23T12:10:54.719Z,1.67
2022-09-23T12:15:34.389Z,2.53
2022-09-23T12:19:57.741Z,4.15
2022-09-23T12:24:32.013Z,4.03
2022-09-23T12:28:40.863Z,3.90
2022-09-23T12:32:43.209Z,2.28
2022-09-23T12:36:45.738Z,2.75
2022-09-23T12:40:48.012Z,2.33
2022-09-23T12:44:50.559Z,1.65
2022-09-23T12:48:57.979Z,3.33
2022-09-23T12:53:34.350Z,2.55
2022-09-23T12:57:35.722Z,2.42
2022-09-23T13:01:38.495Z,1.67
2022-09-23T13:06:10.314Z,1.38
2022-09-23T13:10:22.733Z,2.50
2022-09-23T13:14:27.584Z,1.42
2022-09-23T13:18:50.049Z,3.70
2022-09-23T13:22:54.416Z,2.53
2022-09-23T13:27:06.343Z,3.20
2022-09-23T13:31:14.938Z,3.53
2022-09-23T13:35:24.506Z,2.58
2022-09-23T13:39:27.763Z,2.05
2022-09-23T13:43:55.308Z,1.23
2022-09-23T13:48:13.530Z,1.30
2022-09-23T13:52:27.482Z,2.67
2022-09-23T13:56:32.249Z,2.35
2022-09-23T14:00:36.779Z,1.77
2022-09-23T14:04:38.667Z,1.27
2022-09-23T14:08:43.941Z,2.58
2022-09-23T14:12:47.443Z,4.18
2022-09-23T14:16:51.316Z,1.33
2022-09-23T14:20:52.784Z,1.70
2022-09-23T14:24:55.708Z,2.08
2022-09-23T14:28:57.194Z,1.10
2022-09-23T14:32:59.379Z,3.35
2022-09-23T14:37:33.189Z,1.55
2022-09-23T14:41:41.267Z,1.92
2022-09-23T14:45:47.327Z,2.00
2022-09-23T14:50:10.464Z,2.10
2022-09-23T14:54:30.368Z,1.80
2022-09-23T14:58:46.961Z,2.13
2022-09-23T15:03:00.082Z,1.40
2022-09-23T15:07:08.987Z,2.65
2022-09-23T15:11:11.095Z,19.85
2022-09-23T15:15:14.830Z,3.90
2022-09-23T15:19:19.885Z,2.10
2022-09-23T15:23:41.552Z,1.40
2022-09-23T15:27:55.759Z,3.53
2022-09-23T15:31:57.892Z,3.20
2022-09-23T15:35:59.369Z,3.03
2022-09-23T15:40:00.934Z,10.52
2022-09-23T15:44:13.053Z,2.30
2022-09-23T15:48:17.869Z,3.90
2022-09-23T15:52:22.676Z,2.70
2022-09-23T15:56:26.905Z,3.83
2022-09-23T16:00:28.561Z,3.85
2022-09-23T16:04:31.377Z,2.28
2022-09-23T16:08:33.272Z,6.53
2022-09-23T16:12:34.969Z,1.83
2022-09-23T16:16:36.487Z,4.57
2022-09-23T16:20:42.233Z,2.63
2022-09-23T16:24:43.973Z,3.15
2022-09-23T16:28:46.996Z,3.72
2022-09-23T16:32:48.657Z,4.90
2022-09-23T16:36:50.159Z,6.00
2022-09-23T16:40:51.776Z,4.40
2022-09-23T16:44:53.264Z,7.85
2022-09-23T16:48:56.247Z,6.78
2022-09-23T16:52:57.880Z,5.28
2022-09-23T16:56:59.413Z,5.05
2022-09-23T17:01:19.466Z,4.38
2022-09-23T17:05:20.899Z,4.53
2022-09-23T17:09:24.863Z,5.82
2022-09-23T17:13:29.476Z,2.90
2022-09-23T17:17:36.971Z,4.88
2022-09-23T17:21:38.874Z,4.55
2022-09-23T17:25:40.253Z,7.38
2022-09-23T17:29:41.648Z,3.95
2022-09-23T17:33:43.480Z,5.05
2022-09-23T17:37:46.700Z,6.70
2022-09-23T17:41:48.156Z,4.30
2022-09-23T17:45:49.870Z,5.70
2022-09-23T17:49:51.918Z,4.32
2022-09-23T17:53:53.365Z,5.35
2022-09-23T17:57:54.880Z,6.63
2022-09-23T18:01:56.475Z,4.70
2022-09-23T18:06:17.092Z,4.10
2022-09-23T18:10:18.525Z,4.13
2022-09-23T18:14:22.130Z,4.15
2022-09-23T18:18:23.525Z,3.58
2022-09-23T18:22:24.920Z,7.13
2022-09-23T18:26:30.187Z,7.63
2022-09-23T18:30:32.171Z,6.18
2022-09-23T18:34:33.630Z,5.75
2022-09-23T18:38:35.559Z,5.88
2022-09-23T18:42:40.317Z,7.18
2022-09-23T18:46:45.536Z,8.85
2022-09-23T18:50:48.834Z,5.28
2022-09-23T18:54:54.962Z,6.43
2022-09-23T18:58:56.653Z,4.40
2022-09-23T19:02:58.558Z,5.57
2022-09-23T19:07:00.260Z,4.82
2022-09-23T19:11:03.267Z,3.47
2022-09-23T19:15:04.961Z,5.80
2022-09-23T19:19:07.114Z,4.95
2022-09-23T19:23:08.495Z,6.93
2022-09-23T19:27:09.870Z,5.07
2022-09-23T19:31:13.995Z,5.30
2022-09-23T19:35:16.050Z,3.95
2022-09-23T19:39:23.286Z,4.70
2022-09-23T19:43:25.121Z,5.50
2022-09-23T19:47:26.503Z,6.22
2022-09-23T19:51:28.289Z,6.93
2022-09-23T19:55:30.228Z,9.48
2022-09-23T19:59:31.673Z,6.78
2022-09-23T20:03:33.409Z,8.93
2022-09-23T20:07:34.867Z,5.90
2022-09-23T20:11:36.371Z,6.05
2022-09-23T20:15:37.946Z,7.30
2022-09-23T20:19:40.519Z,6.57
2022-09-23T20:23:42.504Z,6.85
2022-09-23T20:27:49.482Z,6.00
2022-09-23T20:31:51.152Z,5.28
2022-09-23T20:35:53.619Z,7.25
2022-09-23T20:39:55.112Z,8.55
2022-09-23T20:44:00.602Z,5.95
2022-09-23T20:48:03.246Z,6.07
2022-09-23T20:52:04.707Z,7.20
2022-09-23T20:56:06.592Z,7.00
2022-09-23T21:00:08.865Z,8.38
2022-09-23T21:04:10.649Z,6.63
2022-09-23T21:08:12.511Z,5.93
2022-09-23T21:12:13.879Z,7.78
2022-09-23T21:16:17.127Z,7.57
2022-09-23T21:20:18.659Z,6.53
2022-09-23T21:28:43.976Z,6.70
2022-09-23T21:32:45.356Z,6.50
2022-09-23T21:36:48.085Z,6.80
2022-09-23T21:40:56.731Z,6.85
2022-09-23T21:44:58.188Z,9.48
2022-09-23T21:49:01.971Z,12.00
2022-09-23T21:53:03.385Z,8.45
2022-09-23T21:57:04.830Z,5.22
2022-09-23T22:01:11.945Z,5.60
2022-09-23T22:05:13.462Z,5.88
2022-09-23T22:09:20.283Z,5.03
2022-09-23T22:13:21.906Z,5.40
2022-09-23T22:17:23.670Z,4.88
2022-09-23T22:21:26.912Z,5.35
2022-09-23T22:25:28.861Z,6.93
2022-09-23T22:29:48.847Z,7.88
2022-09-23T22:33:50.618Z,6.80
2022-09-23T22:37:52.023Z,7.22
2022-09-23T22:41:53.653Z,6.00
2022-09-23T22:45:55.038Z,5.85
2022-09-23T22:49:56.511Z,7.07
2022-09-23T22:53:58.053Z,5.57
2022-09-23T22:58:10.576Z,6.63
2022-09-23T23:02:23.938Z,5.32
2022-09-23T23:06:25.352Z,6.80
2022-09-23T23:10:27.223Z,7.05
2022-09-23T23:14:31.270Z,6.63
2022-09-23T23:18:35.290Z,5.72
2022-09-23T23:22:36.677Z,7.05
2022-09-23T23:26:38.077Z,4.45
2022-09-23T23:30:39.461Z,6.18
2022-09-23T23:34:40.826Z,6.07
2022-09-23T23:38:44.354Z,7.75
2022-09-23T23:42:45.765Z,5.88
2022-09-23T23:46:48.107Z,8.75
2022-09-23T23:50:54.705Z,5.05
2022-09-23T23:54:56.177Z,6.80
2022-09-23T23:58:59.590Z,7.15
